createdAt,value
2017-11-11T00:00:03.816Z,84.34
2017-11-11T00:00:44.407Z,84.25
2017-11-11T00:01:24.982Z,84.34
2017-11-11T00:02:05.587Z,84.16
2017-11-11T00:02:46.189Z,84.25
2017-11-11T00:03:26.823Z,83.97
2017-11-11T00:04:07.441Z,83.78
2017-11-11T00:04:48.050Z,83.78
2017-11-11T00:05:28.649Z,83.68
2017-11-11T00:06:09.259Z,83.59
2017-11-11T00:06:49.846Z,83.68
2017-11-11T00:07:30.456Z,84.34
2017-11-11T00:08:11.039Z,84.3
2017-11-11T00:08:51.643Z,84.4
2017-11-11T00:09:32.205Z,84.82
2017-11-11T00:10:12.818Z,84.63
2017-11-11T00:10:53.425Z,84.25
2017-11-11T00:11:34.005Z,84.34
2017-11-11T00:12:14.837Z,84.25
2017-11-11T00:12:55.803Z,84.44
2017-11-11T00:13:36.525Z,84.16
2017-11-11T00:14:17.171Z,84.06
2017-11-11T00:14:58.042Z,84.25
2017-11-11T00:15:38.664Z,83.68
2017-11-11T00:16:19.435Z,83.78
2017-11-11T00:17:00.024Z,83.97
2017-11-11T00:17:40.742Z,83.87
2017-11-11T00:18:21.380Z,83.78
2017-11-11T00:19:02.007Z,83.68
2017-11-11T00:19:42.595Z,83.78
2017-11-11T00:20:23.174Z,83.87
2017-11-11T00:21:03.818Z,83.78
2017-11-11T00:21:44.395Z,83.78
2017-11-11T00:22:25.036Z,83.87
2017-11-11T00:23:05.680Z,83.59
2017-11-11T00:23:46.309Z,83.68
2017-11-11T00:24:26.931Z,83.78
2017-11-11T00:25:07.630Z,83.39
2017-11-11T00:25:48.189Z,83.39
2017-11-11T00:26:28.789Z,83.59
2017-11-11T00:27:09.390Z,83.49
2017-11-11T00:27:49.970Z,83.78
2017-11-11T00:28:30.544Z,83.39
2017-11-11T00:29:11.136Z,83.49
2017-11-11T00:29:51.764Z,83.3
2017-11-11T00:30:32.369Z,83.3
2017-11-11T00:31:12.942Z,83.39
2017-11-11T00:31:53.678Z,83.59
2017-11-11T00:32:34.275Z,83.78
2017-11-11T00:33:14.881Z,83.78
2017-11-11T00:33:55.473Z,83.39
2017-11-11T00:34:36.053Z,83.68
2017-11-11T00:35:16.648Z,83.59
2017-11-11T00:35:57.248Z,83.68
2017-11-11T00:36:37.843Z,83.97
2017-11-11T00:37:18.420Z,83.97
2017-11-11T00:37:59.018Z,83.68
2017-11-11T00:38:39.599Z,84.06
2017-11-11T00:39:20.180Z,84.06
2017-11-11T00:40:00.780Z,84.16
2017-11-11T00:40:41.396Z,83.87
2017-11-11T00:41:21.976Z,84.44
2017-11-11T00:42:02.555Z,83.59
2017-11-11T00:42:43.170Z,83.2
2017-11-11T00:43:23.772Z,83.2
2017-11-11T00:44:04.343Z,83.78
2017-11-11T00:44:44.955Z,83.97
2017-11-11T00:45:25.558Z,83.78
2017-11-11T00:46:06.143Z,83.2
2017-11-11T00:46:46.756Z,83.39
2017-11-11T00:47:27.347Z,83.01
2017-11-11T00:48:07.953Z,83.11
2017-11-11T00:48:48.557Z,83.3
2017-11-11T00:49:29.134Z,83.49
2017-11-11T00:50:09.750Z,83.78
2017-11-11T00:50:50.369Z,83.87
2017-11-11T00:51:30.939Z,83.59
2017-11-11T00:52:11.532Z,83.2
2017-11-11T00:52:52.125Z,83.49
2017-11-11T00:53:32.710Z,83.49
2017-11-11T00:54:13.309Z,83.49
2017-11-11T00:54:53.915Z,83.2
2017-11-11T00:55:34.527Z,83.39
2017-11-11T00:56:15.128Z,83.3
2017-11-11T00:56:55.735Z,83.01
2017-11-11T00:57:36.369Z,82.26
2017-11-11T00:58:16.977Z,82.35
2017-11-11T00:58:57.584Z,82.26
2017-11-11T00:59:38.175Z,83.11
2017-11-11T01:00:18.774Z,82.97
2017-11-11T01:00:59.367Z,83.36
2017-11-11T01:01:39.976Z,83.64
2017-11-11T01:02:20.558Z,83.36
2017-11-11T01:03:01.374Z,83.45
2017-11-11T01:03:41.773Z,83.36
2017-11-11T01:04:22.338Z,83.36
2017-11-11T01:05:02.914Z,83.07
2017-11-11T01:05:43.509Z,83.26
2017-11-11T01:06:24.148Z,83.45
2017-11-11T01:07:04.736Z,83.11
2017-11-11T01:07:45.350Z,83.36
2017-11-11T01:08:25.951Z,83.3
2017-11-11T01:09:06.506Z,83.26
2017-11-11T01:09:47.078Z,83.45
2017-11-11T01:10:27.644Z,83.3
2017-11-11T01:11:08.231Z,83.3
2017-11-11T01:11:48.798Z,83.39
2017-11-11T01:12:29.410Z,82.45
2017-11-11T01:13:10.016Z,82.64
2017-11-11T01:13:50.601Z,82.35
2017-11-11T01:14:31.177Z,82.35
2017-11-11T01:15:11.742Z,82.45
2017-11-11T01:15:52.303Z,82.26
2017-11-11T01:16:32.872Z,82.92
2017-11-11T01:17:13.446Z,82.88
2017-11-11T01:17:54.014Z,82.69
2017-11-11T01:18:34.602Z,82.92
2017-11-11T01:19:15.161Z,83.26
2017-11-11T01:19:55.724Z,83.45
2017-11-11T01:20:36.283Z,83.16
2017-11-11T01:21:16.850Z,83.36
2017-11-11T01:21:57.418Z,83.11
2017-11-11T01:22:37.996Z,82.4
2017-11-11T01:23:18.560Z,82.31
2017-11-11T01:23:59.150Z,82.97
2017-11-11T01:24:39.755Z,83.26
2017-11-11T01:25:20.338Z,83.36
2017-11-11T01:26:00.895Z,83.45
2017-11-11T01:26:41.473Z,83.16
2017-11-11T01:27:22.048Z,82.88
2017-11-11T01:28:02.615Z,82.92
2017-11-11T01:28:43.219Z,82.82
2017-11-11T01:29:23.777Z,82.59
2017-11-11T01:30:04.354Z,82.92
2017-11-11T01:30:44.920Z,82.82
2017-11-11T01:31:25.517Z,82.31
2017-11-11T01:32:06.047Z,82.69
2017-11-11T01:32:46.614Z,82.4
2017-11-11T01:33:27.202Z,82.4
2017-11-11T01:34:07.785Z,82.21
2017-11-11T01:34:48.358Z,82.5
2017-11-11T01:35:28.961Z,82.59
2017-11-11T01:36:09.549Z,82.59
2017-11-11T01:36:50.130Z,83.45
2017-11-11T01:37:30.702Z,83.36
2017-11-11T01:38:11.266Z,82.59
2017-11-11T01:38:51.850Z,82.78
2017-11-11T01:39:32.403Z,82.78
2017-11-11T01:40:12.984Z,82.69
2017-11-11T01:40:53.541Z,82.4
2017-11-11T01:41:34.114Z,83.16
2017-11-11T01:42:14.743Z,82.59
2017-11-11T01:42:55.324Z,82.4
2017-11-11T01:43:36.144Z,82.97
2017-11-11T01:44:16.720Z,83.45
2017-11-11T01:44:57.307Z,83.07
2017-11-11T01:45:37.871Z,82.73
2017-11-11T01:46:18.423Z,82.88
2017-11-11T01:46:59.010Z,82.31
2017-11-11T01:47:39.612Z,82.78
2017-11-11T01:48:20.202Z,82.31
2017-11-11T01:49:00.750Z,82.4
2017-11-11T01:49:41.311Z,82.4
2017-11-11T01:50:21.892Z,82.5
2017-11-11T01:51:02.508Z,82.88
2017-11-11T01:51:43.056Z,82.59
2017-11-11T01:52:23.612Z,82.31
2017-11-11T01:53:04.182Z,82.5
2017-11-11T01:53:44.803Z,82.59
2017-11-11T01:54:25.391Z,82.78
2017-11-11T01:55:05.956Z,82.59
2017-11-11T01:55:46.544Z,82.59
2017-11-11T01:56:27.137Z,82.97
2017-11-11T01:57:07.719Z,82.5
2017-11-11T01:57:48.287Z,82.69
2017-11-11T01:58:28.871Z,82.78
2017-11-11T01:59:09.469Z,82.88
2017-11-11T01:59:50.071Z,82.78
2017-11-11T02:00:30.636Z,82.78
2017-11-11T02:01:11.210Z,82.4
2017-11-11T02:01:51.819Z,82.31
2017-11-11T02:02:32.376Z,82.78
2017-11-11T02:03:12.984Z,82.4
2017-11-11T02:03:53.537Z,82.88
2017-11-11T02:04:34.127Z,83.07
2017-11-11T02:05:14.695Z,82.69
2017-11-11T02:05:55.291Z,82.69
2017-11-11T02:06:35.869Z,82.4
2017-11-11T02:07:16.483Z,82.5
2017-11-11T02:07:57.032Z,83.07
2017-11-11T02:08:37.595Z,83.07
2017-11-11T02:09:18.163Z,82.4
2017-11-11T02:09:58.775Z,82.31
2017-11-11T02:10:39.355Z,82.4
2017-11-11T02:11:19.933Z,82.5
2017-11-11T02:12:00.538Z,82.59
2017-11-11T02:12:41.126Z,82.59
2017-11-11T02:13:21.694Z,82.5
2017-11-11T02:14:02.309Z,82.31
2017-11-11T02:14:42.925Z,83.16
2017-11-11T02:15:23.531Z,83.26
2017-11-11T02:16:04.165Z,83.16
2017-11-11T02:16:44.740Z,83.16
2017-11-11T02:17:25.352Z,83.36
2017-11-11T02:18:05.924Z,83.07
2017-11-11T02:18:46.521Z,83.07
2017-11-11T02:19:27.145Z,82.4
2017-11-11T02:20:07.717Z,82.97
2017-11-11T02:20:48.283Z,83.16
2017-11-11T02:21:28.864Z,83.54
2017-11-11T02:22:09.466Z,82.5
2017-11-11T02:22:50.043Z,82.4
2017-11-11T02:23:30.607Z,82.31
2017-11-11T02:24:11.189Z,82.5
2017-11-11T02:24:51.772Z,83.07
2017-11-11T02:25:32.383Z,82.4
2017-11-11T02:26:12.972Z,82.31
2017-11-11T02:26:53.641Z,82.4
2017-11-11T02:27:34.167Z,82.4
2017-11-11T02:28:14.781Z,82.21
2017-11-11T02:28:55.391Z,82.4
2017-11-11T02:29:35.929Z,82.78
2017-11-11T02:30:16.601Z,83.16
2017-11-11T02:30:57.191Z,82.88
2017-11-11T02:31:37.744Z,83.54
2017-11-11T02:32:18.324Z,83.45
2017-11-11T02:32:58.905Z,83.26
2017-11-11T02:33:39.516Z,83.26
2017-11-11T02:34:20.079Z,83.54
2017-11-11T02:35:00.683Z,83.45
2017-11-11T02:35:41.260Z,83.54
2017-11-11T02:36:21.849Z,83.54
2017-11-11T02:37:02.420Z,83.45
2017-11-11T02:37:43.019Z,83.54
2017-11-11T02:38:23.591Z,83.45
2017-11-11T02:39:04.164Z,83.45
2017-11-11T02:39:44.732Z,83.54
2017-11-11T02:40:25.332Z,83.83
2017-11-11T02:41:05.926Z,83.54
2017-11-11T02:41:46.521Z,84.21
2017-11-11T02:42:27.102Z,83.83
2017-11-11T02:43:07.701Z,84.21
2017-11-11T02:43:48.272Z,83.73
2017-11-11T02:44:28.902Z,83.83
2017-11-11T02:45:09.526Z,83.92
2017-11-11T02:45:50.087Z,83.54
2017-11-11T02:46:30.647Z,83.73
2017-11-11T02:47:11.276Z,83.92
2017-11-11T02:47:51.862Z,83.73
2017-11-11T02:48:32.428Z,83.83
2017-11-11T02:49:12.991Z,83.73
2017-11-11T02:49:53.567Z,83.73
2017-11-11T02:50:34.138Z,83.83
2017-11-11T02:51:14.718Z,83.64
2017-11-11T02:51:55.307Z,83.64
2017-11-11T02:52:35.874Z,83.73
2017-11-11T02:53:16.445Z,83.73
2017-11-11T02:53:57.044Z,83.83
2017-11-11T02:54:37.609Z,83.64
2017-11-11T02:55:18.196Z,83.64
2017-11-11T02:55:58.811Z,83.54
2017-11-11T02:56:39.402Z,83.83
2017-11-11T02:57:20.014Z,83.83
2017-11-11T02:58:00.592Z,83.73
2017-11-11T02:58:41.188Z,83.73
2017-11-11T02:59:21.794Z,84.3
2017-11-11T03:00:02.414Z,83.73
2017-11-11T03:00:42.999Z,84.21
2017-11-11T03:01:23.596Z,84.01
2017-11-11T03:02:04.178Z,83.73
2017-11-11T03:02:44.782Z,83.54
2017-11-11T03:03:25.370Z,83.26
2017-11-11T03:04:05.976Z,83.26
2017-11-11T03:04:46.576Z,83.45
2017-11-11T03:05:27.160Z,83.36
2017-11-11T03:06:07.731Z,83.16
2017-11-11T03:06:48.351Z,83.16
2017-11-11T03:07:28.940Z,83.54
2017-11-11T03:08:09.506Z,83.36
2017-11-11T03:08:50.086Z,83.36
2017-11-11T03:09:30.667Z,83.16
2017-11-11T03:10:11.273Z,83.16
2017-11-11T03:10:51.860Z,83.16
2017-11-11T03:11:32.443Z,83.07
2017-11-11T03:12:13.025Z,83.07
2017-11-11T03:12:53.608Z,83.16
2017-11-11T03:13:34.170Z,83.26
2017-11-11T03:14:14.753Z,83.26
2017-11-11T03:14:55.345Z,83.54
2017-11-11T03:15:35.929Z,83.64
2017-11-11T03:16:16.516Z,83.36
2017-11-11T03:16:57.112Z,82.78
2017-11-11T03:17:37.706Z,83.26
2017-11-11T03:18:18.288Z,83.26
2017-11-11T03:18:58.851Z,83.16
2017-11-11T03:19:39.459Z,83.45
2017-11-11T03:20:20.052Z,83.16
2017-11-11T03:21:00.626Z,83.36
2017-11-11T03:21:41.210Z,83.07
2017-11-11T03:22:21.782Z,83.54
2017-11-11T03:23:02.342Z,83.45
2017-11-11T03:23:42.933Z,83.45
2017-11-11T03:24:23.505Z,83.64
2017-11-11T03:25:04.089Z,83.26
2017-11-11T03:25:44.665Z,83.16
2017-11-11T03:26:25.249Z,83.16
2017-11-11T03:27:05.842Z,83.36
2017-11-11T03:27:46.423Z,83.26
2017-11-11T03:28:26.990Z,83.26
2017-11-11T03:29:07.600Z,83.07
2017-11-11T03:29:48.184Z,83.54
2017-11-11T03:30:28.787Z,83.73
2017-11-11T03:31:09.366Z,83.92
2017-11-11T03:31:49.938Z,83.73
2017-11-11T03:32:30.569Z,83.54
2017-11-11T03:33:11.133Z,83.54
2017-11-11T03:33:51.732Z,83.54
2017-11-11T03:34:32.341Z,83.54
2017-11-11T03:35:12.907Z,83.54
2017-11-11T03:35:53.483Z,83.36
2017-11-11T03:36:34.104Z,83.26
2017-11-11T03:37:14.658Z,83.07
2017-11-11T03:37:55.230Z,83.26
2017-11-11T03:38:35.841Z,83.26
2017-11-11T03:39:16.509Z,83.26
2017-11-11T03:39:57.094Z,83.36
2017-11-11T03:40:37.658Z,83.26
2017-11-11T03:41:18.237Z,83.54
2017-11-11T03:41:58.815Z,83.36
2017-11-11T03:42:39.394Z,83.54
2017-11-11T03:43:19.961Z,83.64
2017-11-11T03:44:00.562Z,83.64
2017-11-11T03:44:41.153Z,83.83
2017-11-11T03:45:21.776Z,83.73
2017-11-11T03:46:02.398Z,83.73
2017-11-11T03:46:42.980Z,83.73
2017-11-11T03:47:23.565Z,83.45
2017-11-11T03:48:04.188Z,83.54
2017-11-11T03:48:44.771Z,83.54
2017-11-11T03:49:25.362Z,83.73
2017-11-11T03:50:05.944Z,83.64
2017-11-11T03:50:46.510Z,83.64
2017-11-11T03:51:27.093Z,83.92
2017-11-11T03:52:07.659Z,83.54
2017-11-11T03:52:48.242Z,83.73
2017-11-11T03:53:28.818Z,83.92
2017-11-11T03:54:09.432Z,83.83
2017-11-11T03:54:50.026Z,83.83
2017-11-11T03:55:30.622Z,83.92
2017-11-11T03:56:11.199Z,83.73
2017-11-11T03:56:51.801Z,83.73
2017-11-11T03:57:32.416Z,83.73
2017-11-11T03:58:13.007Z,83.73
2017-11-11T03:58:53.610Z,83.45
2017-11-11T03:59:34.224Z,83.54
2017-11-11T04:00:14.809Z,83.64
2017-11-11T04:00:55.412Z,83.54
2017-11-11T04:01:36.020Z,83.54
2017-11-11T04:02:16.610Z,83.26
2017-11-11T04:02:57.238Z,83.64
2017-11-11T04:03:37.827Z,83.45
2017-11-11T04:04:18.433Z,83.45
2017-11-11T04:04:59.014Z,83.45
2017-11-11T04:05:39.589Z,83.45
2017-11-11T04:06:20.192Z,83.54
2017-11-11T04:07:00.778Z,83.45
2017-11-11T04:07:41.388Z,83.64
2017-11-11T04:08:21.991Z,83.73
2017-11-11T04:09:02.601Z,83.92
2017-11-11T04:09:43.206Z,83.64
2017-11-11T04:10:23.800Z,83.73
2017-11-11T04:11:04.438Z,83.54
2017-11-11T04:11:45.019Z,83.45
2017-11-11T04:12:25.627Z,83.54
2017-11-11T04:13:06.208Z,83.45
2017-11-11T04:13:46.839Z,83.83
2017-11-11T04:14:27.410Z,83.64
2017-11-11T04:15:08.034Z,83.73
2017-11-11T04:15:48.614Z,83.45
2017-11-11T04:16:29.206Z,83.36
2017-11-11T04:17:09.807Z,83.36
2017-11-11T04:17:50.404Z,83.26
2017-11-11T04:18:31.008Z,83.45
2017-11-11T04:19:11.604Z,83.16
2017-11-11T04:19:52.207Z,83.36
2017-11-11T04:20:32.811Z,83.07
2017-11-11T04:21:13.424Z,83.07
2017-11-11T04:21:54.022Z,83.07
2017-11-11T04:22:34.602Z,83.36
2017-11-11T04:23:15.218Z,83.73
2017-11-11T04:23:55.813Z,83.45
2017-11-11T04:24:36.397Z,82.97
2017-11-11T04:25:16.992Z,83.26
2017-11-11T04:25:57.594Z,83.26
2017-11-11T04:26:38.181Z,83.16
2017-11-11T04:27:18.768Z,82.88
2017-11-11T04:27:59.375Z,83.07
2017-11-11T04:28:39.965Z,82.78
2017-11-11T04:29:20.586Z,83.54
2017-11-11T04:30:01.183Z,83.16
2017-11-11T04:30:41.772Z,83.26
2017-11-11T04:31:22.376Z,83.26
2017-11-11T04:32:02.986Z,83.45
2017-11-11T04:32:43.607Z,83.26
2017-11-11T04:33:24.202Z,83.36
2017-11-11T04:34:04.795Z,83.36
2017-11-11T04:34:45.387Z,83.64
2017-11-11T04:35:25.982Z,83.07
2017-11-11T04:36:06.574Z,83.16
2017-11-11T04:36:47.169Z,83.45
2017-11-11T04:37:27.759Z,83.45
2017-11-11T04:38:08.336Z,82.88
2017-11-11T04:38:48.922Z,82.4
2017-11-11T04:39:29.494Z,82.88
2017-11-11T04:40:10.091Z,83.36
2017-11-11T04:40:50.684Z,83.45
2017-11-11T04:41:31.305Z,83.45
2017-11-11T04:42:11.891Z,83.36
2017-11-11T04:42:52.469Z,82.78
2017-11-11T04:43:33.068Z,83.16
2017-11-11T04:44:13.731Z,83.16
2017-11-11T04:44:54.294Z,83.26
2017-11-11T04:45:34.883Z,83.45
2017-11-11T04:46:15.492Z,83.36
2017-11-11T04:46:56.096Z,83.26
2017-11-11T04:47:36.692Z,83.26
2017-11-11T04:48:17.323Z,83.54
2017-11-11T04:48:58.046Z,82.5
2017-11-11T04:49:38.595Z,82.4
2017-11-11T04:50:19.221Z,82.88
2017-11-11T04:50:59.809Z,82.21
2017-11-11T04:51:40.425Z,82.4
2017-11-11T04:52:21.009Z,82.59
2017-11-11T04:53:01.593Z,82.59
2017-11-11T04:53:42.174Z,82.5
2017-11-11T04:54:22.788Z,82.88
2017-11-11T04:55:03.377Z,83.45
2017-11-11T04:55:43.954Z,83.16
2017-11-11T04:56:24.577Z,83.16
2017-11-11T04:57:05.160Z,83.36
2017-11-11T04:57:45.742Z,83.16
2017-11-11T04:58:26.337Z,83.07
2017-11-11T04:59:06.940Z,83.45
2017-11-11T04:59:47.556Z,83.45
2017-11-11T05:00:28.136Z,83.45
2017-11-11T05:01:08.726Z,83.26
2017-11-11T05:01:49.309Z,83.26
2017-11-11T05:02:29.884Z,82.97
2017-11-11T05:03:10.451Z,83.07
2017-11-11T05:03:51.027Z,83.07
2017-11-11T05:04:31.630Z,83.16
2017-11-11T05:05:12.243Z,83.45
2017-11-11T05:05:52.825Z,83.26
2017-11-11T05:06:33.429Z,83.36
2017-11-11T05:07:14.036Z,83.26
2017-11-11T05:07:54.639Z,83.16
2017-11-11T05:08:35.224Z,83.16
2017-11-11T05:09:15.799Z,83.16
2017-11-11T05:09:56.383Z,83.26
2017-11-11T05:10:36.976Z,83.16
2017-11-11T05:11:17.557Z,83.45
2017-11-11T05:11:58.144Z,83.16
2017-11-11T05:12:38.738Z,83.45
2017-11-11T05:13:19.333Z,83.45
2017-11-11T05:13:59.916Z,83.26
2017-11-11T05:14:40.500Z,83.26
2017-11-11T05:15:21.084Z,83.54
2017-11-11T05:16:01.689Z,83.64
2017-11-11T05:16:42.279Z,83.36
2017-11-11T05:17:22.852Z,83.36
2017-11-11T05:18:03.446Z,83.07
2017-11-11T05:18:44.153Z,82.4
2017-11-11T05:19:24.724Z,82.88
2017-11-11T05:20:05.299Z,83.54
2017-11-11T05:20:45.888Z,83.26
2017-11-11T05:21:26.486Z,83.54
2017-11-11T05:22:07.061Z,82.59
2017-11-11T05:22:47.647Z,82.4
2017-11-11T05:23:28.212Z,82.21
2017-11-11T05:24:08.789Z,82.69
2017-11-11T05:24:49.400Z,82.78
2017-11-11T05:25:30.010Z,82.59
2017-11-11T05:26:10.611Z,83.16
2017-11-11T05:26:51.192Z,82.78
2017-11-11T05:27:31.770Z,82.88
2017-11-11T05:28:12.354Z,83.45
2017-11-11T05:28:52.953Z,83.36
2017-11-11T05:29:33.522Z,83.36
2017-11-11T05:30:14.123Z,83.64
2017-11-11T05:30:54.714Z,83.45
2017-11-11T05:31:35.305Z,83.36
2017-11-11T05:32:15.886Z,83.16
2017-11-11T05:32:56.463Z,83.16
2017-11-11T05:33:37.045Z,83.26
2017-11-11T05:34:17.616Z,83.16
2017-11-11T05:34:58.222Z,83.16
2017-11-11T05:35:38.794Z,83.26
2017-11-11T05:36:19.363Z,83.07
2017-11-11T05:36:59.935Z,83.16
2017-11-11T05:37:40.545Z,83.54
2017-11-11T05:38:21.116Z,83.83
2017-11-11T05:39:01.720Z,83.54
2017-11-11T05:39:42.344Z,83.54
2017-11-11T05:40:22.942Z,84.01
2017-11-11T05:41:03.537Z,84.11
2017-11-11T05:41:44.109Z,84.4
2017-11-11T05:42:24.711Z,84.11
2017-11-11T05:43:05.320Z,84.49
2017-11-11T05:43:45.940Z,84.59
2017-11-11T05:44:26.523Z,84.21
2017-11-11T05:45:07.103Z,84.49
2017-11-11T05:45:47.689Z,84.78
2017-11-11T05:46:28.280Z,84.49
2017-11-11T05:47:08.862Z,84.59
2017-11-11T05:47:49.458Z,84.78
2017-11-11T05:48:30.029Z,85.06
2017-11-11T05:49:10.664Z,85.16
2017-11-11T05:49:51.256Z,85.06
2017-11-11T05:50:31.853Z,84.97
2017-11-11T05:51:12.455Z,84.59
2017-11-11T05:51:53.037Z,84.59
2017-11-11T05:52:33.654Z,84.59
2017-11-11T05:53:14.264Z,84.78
2017-11-11T05:53:54.850Z,84.68
2017-11-11T05:54:35.435Z,84.78
2017-11-11T05:55:16.059Z,84.78
2017-11-11T05:55:56.661Z,84.87
2017-11-11T05:56:37.250Z,84.97
2017-11-11T05:57:17.821Z,84.97
2017-11-11T05:57:58.397Z,84.87
2017-11-11T05:58:38.965Z,84.97
2017-11-11T05:59:19.563Z,84.78
2017-11-11T06:00:00.183Z,84.59
2017-11-11T06:00:40.764Z,84.87
2017-11-11T06:01:21.378Z,84.4
2017-11-11T06:02:01.967Z,84.59
2017-11-11T06:02:42.555Z,85.06
2017-11-11T06:03:23.153Z,85.16
2017-11-11T06:04:03.771Z,84.78
2017-11-11T06:04:44.345Z,84.87
2017-11-11T06:05:24.922Z,84.4
2017-11-11T06:06:05.488Z,84.3
2017-11-11T06:06:46.086Z,84.97
2017-11-11T06:07:26.667Z,84.4
2017-11-11T06:08:07.266Z,84.68
2017-11-11T06:08:47.835Z,84.59
2017-11-11T06:09:28.424Z,84.78
2017-11-11T06:10:09.021Z,84.68
2017-11-11T06:10:49.650Z,84.68
2017-11-11T06:11:30.251Z,84.68
2017-11-11T06:12:10.838Z,84.87
2017-11-11T06:12:51.437Z,85.06
2017-11-11T06:13:32.018Z,84.87
2017-11-11T06:14:12.627Z,84.97
2017-11-11T06:14:53.204Z,85.06
2017-11-11T06:15:33.787Z,85.16
2017-11-11T06:16:14.389Z,85.06
2017-11-11T06:16:54.987Z,84.87
2017-11-11T06:17:35.628Z,85.63
2017-11-11T06:18:16.227Z,85.44
2017-11-11T06:18:56.806Z,85.25
2017-11-11T06:19:37.390Z,85.25
2017-11-11T06:20:17.978Z,85.82
2017-11-11T06:20:58.576Z,85.53
2017-11-11T06:21:39.201Z,85.53
2017-11-11T06:22:19.802Z,85.44
2017-11-11T06:23:00.389Z,85.44
2017-11-11T06:23:40.972Z,86.11
2017-11-11T06:24:21.593Z,86.01
2017-11-11T06:25:02.152Z,85.91
2017-11-11T06:25:42.749Z,85.91
2017-11-11T06:26:23.352Z,85.91
2017-11-11T06:27:03.973Z,85.53
2017-11-11T06:27:44.608Z,86.11
2017-11-11T06:28:25.175Z,85.82
2017-11-11T06:29:05.784Z,86.39
2017-11-11T06:29:46.414Z,86.49
2017-11-11T06:30:26.966Z,86.3
2017-11-11T06:31:07.526Z,86.39
2017-11-11T06:31:48.091Z,86.87
2017-11-11T06:32:28.696Z,86.68
2017-11-11T06:33:09.314Z,87.34
2017-11-11T06:33:49.898Z,87.05
2017-11-11T06:34:30.496Z,87.05
2017-11-11T06:35:11.070Z,87.24
2017-11-11T06:35:51.655Z,87.24
2017-11-11T06:36:32.252Z,87.43
2017-11-11T06:37:12.835Z,87.72
2017-11-11T06:37:53.482Z,88.2
2017-11-11T06:38:34.032Z,87.91
2017-11-11T06:39:14.629Z,88.29
2017-11-11T06:39:55.197Z,88.67
2017-11-11T06:40:35.787Z,88.57
2017-11-11T06:41:16.354Z,88.57
2017-11-11T06:41:56.971Z,88.86
2017-11-11T06:42:37.520Z,89.43
2017-11-11T06:43:18.120Z,89.14
2017-11-11T06:43:58.712Z,88.95
2017-11-11T06:44:39.354Z,89.2
2017-11-11T06:45:19.946Z,89.53
2017-11-11T06:46:00.515Z,89.72
2017-11-11T06:46:41.097Z,90.19
2017-11-11T06:47:21.689Z,89.86
2017-11-11T06:48:02.256Z,90.05
2017-11-11T06:48:42.851Z,89.95
2017-11-11T06:49:23.438Z,90.05
2017-11-11T06:50:04.026Z,90.33
2017-11-11T06:50:44.633Z,90.43
2017-11-11T06:51:25.228Z,90.43
2017-11-11T06:52:05.807Z,90.71
2017-11-11T06:52:46.384Z,91.09
2017-11-11T06:53:26.990Z,90.62
2017-11-11T06:54:07.587Z,90.71
2017-11-11T06:54:48.158Z,90.95
2017-11-11T06:55:28.788Z,90.62
2017-11-11T06:56:09.350Z,90.71
2017-11-11T06:56:49.936Z,90.95
2017-11-11T06:57:30.510Z,90.71
2017-11-11T06:58:11.094Z,90.85
2017-11-11T06:58:51.684Z,91.04
2017-11-11T06:59:32.294Z,90.81
2017-11-11T07:00:12.878Z,90.62
2017-11-11T07:00:53.455Z,90.71
2017-11-11T07:01:34.068Z,91.28
2017-11-11T07:02:14.720Z,91.09
2017-11-11T07:02:55.330Z,91.28
2017-11-11T07:03:36.061Z,91.38
2017-11-11T07:04:16.681Z,91.85
2017-11-11T07:04:57.272Z,91.75
2017-11-11T07:05:37.871Z,91.56
2017-11-11T07:06:18.470Z,91.75
2017-11-11T07:06:59.070Z,91.56
2017-11-11T07:07:39.643Z,91.38
2017-11-11T07:08:20.273Z,91.38
2017-11-11T07:09:00.826Z,91.66
2017-11-11T07:09:41.422Z,91.94
2017-11-11T07:10:22.070Z,91.75
2017-11-11T07:11:02.679Z,91.75
2017-11-11T07:11:43.349Z,91.56
2017-11-11T07:12:23.946Z,91.66
2017-11-11T07:13:04.512Z,92.14
2017-11-11T07:13:45.827Z,92.14
2017-11-11T07:14:26.399Z,92.14
2017-11-11T07:15:07.022Z,91.94
2017-11-11T07:15:47.818Z,92.04
2017-11-11T07:16:28.382Z,91.56
2017-11-11T07:17:08.959Z,91.47
2017-11-11T07:17:49.533Z,91.85
2017-11-11T07:18:30.126Z,91.56
2017-11-11T07:19:10.713Z,92.23
2017-11-11T07:19:51.386Z,92.23
2017-11-11T07:20:31.994Z,92.04
2017-11-11T07:21:12.595Z,92.42
2017-11-11T07:21:53.273Z,92.71
2017-11-11T07:22:33.831Z,92.71
2017-11-11T07:23:14.526Z,92.42
2017-11-11T07:23:55.294Z,92.71
2017-11-11T07:24:35.894Z,92.71
2017-11-11T07:25:16.508Z,92.9
2017-11-11T07:25:57.117Z,92.33
2017-11-11T07:26:37.734Z,92.61
2017-11-11T07:27:19.487Z,92.61
2017-11-11T07:28:00.080Z,92.61
2017-11-11T07:28:40.672Z,92.52
2017-11-11T07:29:21.283Z,92.23
2017-11-11T07:30:01.977Z,92.42
2017-11-11T07:30:42.620Z,92.71
2017-11-11T07:31:23.248Z,92.52
2017-11-11T07:32:04.312Z,92.42
2017-11-11T07:32:44.916Z,92.42
2017-11-11T07:33:25.513Z,92.33
2017-11-11T07:34:06.155Z,92.52
2017-11-11T07:34:46.737Z,92.52
2017-11-11T07:35:27.697Z,92.71
2017-11-11T07:36:08.323Z,92.52
2017-11-11T07:36:48.899Z,92.52
2017-11-11T07:37:29.507Z,92.23
2017-11-11T07:38:10.144Z,92.52
2017-11-11T07:38:50.736Z,91.56
2017-11-11T07:39:31.404Z,92.33
2017-11-11T07:40:12.032Z,91.52
2017-11-11T07:40:52.813Z,91.56
2017-11-11T07:41:33.606Z,91.71
2017-11-11T07:42:14.204Z,91.52
2017-11-11T07:42:54.791Z,91.56
2017-11-11T07:43:35.372Z,91.71
2017-11-11T07:44:15.961Z,93.7
2017-11-11T07:44:56.538Z,95.7
2017-11-11T07:45:37.171Z,97.78
2017-11-11T07:46:17.751Z,95.98
2017-11-11T07:46:58.346Z,96.12
2017-11-11T07:47:38.956Z,95.94
2017-11-11T07:48:19.532Z,95.08
2017-11-11T07:49:00.119Z,95.17
2017-11-11T07:49:40.710Z,93.37
2017-11-11T07:50:21.304Z,94.18
2017-11-11T07:51:01.905Z,92.66
2017-11-11T07:51:42.485Z,90.28
2017-11-11T07:52:23.089Z,88.47
2017-11-11T07:53:03.734Z,88.47
2017-11-11T07:53:44.269Z,87.24
2017-11-11T07:54:24.863Z,87.14
2017-11-11T07:55:05.466Z,86.95
2017-11-11T07:55:46.048Z,86.76
2017-11-11T07:56:26.634Z,86.29
2017-11-11T07:57:07.241Z,87.14
2017-11-11T07:57:47.824Z,87.14
2017-11-11T07:58:28.435Z,87.71
2017-11-11T07:59:09.119Z,87.81
2017-11-11T07:59:49.681Z,87.43
2017-11-11T08:00:30.260Z,87.38
2017-11-11T08:01:11.137Z,87.28
2017-11-11T08:01:51.732Z,88.61
2017-11-11T08:02:32.376Z,88.04
2017-11-11T08:03:12.978Z,87.57
2017-11-11T08:03:53.571Z,86.9
2017-11-11T08:04:34.162Z,87.47
2017-11-11T08:05:14.765Z,86.18
2017-11-11T08:05:55.364Z,85.71
2017-11-11T08:06:36.042Z,85.8
2017-11-11T08:07:16.634Z,85.52
2017-11-11T08:07:57.247Z,85.04
2017-11-11T08:08:37.877Z,84.38
2017-11-11T08:09:18.450Z,83.42
2017-11-11T08:09:59.039Z,82.76
2017-11-11T08:10:40.301Z,82.76
2017-11-11T08:11:20.910Z,81.24
2017-11-11T08:12:01.505Z,80.66
2017-11-11T08:12:42.147Z,81.18
2017-11-11T08:13:22.846Z,80.47
2017-11-11T08:14:04.970Z,80.57
2017-11-11T08:14:46.039Z,80.47
2017-11-11T08:15:26.990Z,80.86
2017-11-11T08:16:07.656Z,81.05
2017-11-11T08:16:48.304Z,80.29
2017-11-11T08:17:28.917Z,80.19
2017-11-11T08:18:09.494Z,79.72
2017-11-11T08:18:50.094Z,79.24
2017-11-11T08:19:30.805Z,79.14
2017-11-11T08:20:11.615Z,78.67
2017-11-11T08:20:52.208Z,78.96
2017-11-11T08:21:32.800Z,79.11
2017-11-11T08:22:14.406Z,79.01
2017-11-11T08:22:55.381Z,79.68
2017-11-11T08:23:36.495Z,80.15
2017-11-11T08:24:17.486Z,80.44
2017-11-11T08:24:58.253Z,80.82
2017-11-11T08:25:39.161Z,80.87
2017-11-11T08:26:19.863Z,81.25
2017-11-11T08:27:00.504Z,81.35
2017-11-11T08:27:41.168Z,82.39
2017-11-11T08:28:21.758Z,82.01
2017-11-11T08:29:02.490Z,82.1
2017-11-11T08:29:43.133Z,82.87
2017-11-11T08:30:23.732Z,83.62
2017-11-11T08:31:04.316Z,83.2
2017-11-11T08:31:44.909Z,83.39
2017-11-11T08:32:25.502Z,83.87
2017-11-11T08:33:06.112Z,83.68
2017-11-11T08:33:46.701Z,84.53
2017-11-11T08:34:27.297Z,84.44
2017-11-11T08:35:08.068Z,84.53
2017-11-11T08:35:48.643Z,84.63
2017-11-11T08:36:29.215Z,84.53
2017-11-11T08:37:09.806Z,84.91
2017-11-11T08:37:50.414Z,85.2
2017-11-11T08:38:31.485Z,84.91
2017-11-11T08:39:12.176Z,85.3
2017-11-11T08:39:53.408Z,85.11
2017-11-11T08:40:34.653Z,85.58
2017-11-11T08:41:15.603Z,85.49
2017-11-11T08:41:56.189Z,85.39
2017-11-11T08:42:36.756Z,85.2
2017-11-11T08:43:17.330Z,85.3
2017-11-11T08:43:57.909Z,85.3